Time;durP1;ratioP1;P1;durP2;ratioP2;P2;SDS_P1;SDS_P2;PMS_P1;PMS_P2;Temp;Humidity;BMP_temperature;BMP_pressure;BME280_temperature;BME280_humidity;BME280_pressure;Samples;Min_cycle;Max_cycle;Signal;HPM_P1;HPM_P2
2022/03/09 00:00:56;;;;;;;1.20;1.07;;;;;;;2.69;48.99;102234.53;4952642;28;98647;-82
2022/03/09 00:03:22;;;;;;;0.93;0.93;;;;;;;2.65;49.16;102201.97;4949226;28;96924;-82
2022/03/09 00:05:48;;;;;;;1.30;1.13;;;;;;;2.64;49.28;102205.09;4966116;28;97092;-82
2022/03/09 00:08:14;;;;;;;1.00;1.00;;;;;;;2.65;49.44;102201.97;4951435;28;101027;-82
2022/03/09 00:10:39;;;;;;;1.40;1.30;;;;;;;2.70;49.52;102206.22;4957852;28;97144;-82
2022/03/09 00:13:04;;;;;;;2.80;1.30;;;;;;;2.74;49.25;102218.59;4954044;28;97241;-82
2022/03/09 00:15:30;;;;;;;1.70;1.40;;;;;;;2.76;49.20;102213.53;4951752;28;97476;-82
2022/03/09 00:17:55;;;;;;;1.60;1.50;;;;;;;2.72;49.04;102220.94;4951564;28;96885;-82
2022/03/09 00:20:21;;;;;;;1.43;1.33;;;;;;;2.68;48.95;102230.28;4954082;28;97649;-83
2022/03/09 00:22:46;;;;;;;4.03;2.40;;;;;;;2.64;49.13;102219.47;4953560;28;96901;-82
2022/03/09 00:25:11;;;;;;;3.30;2.30;;;;;;;2.64;49.39;102215.97;4956432;28;97132;-82
2022/03/09 00:27:37;;;;;;;6.63;2.83;;;;;;;2.63;49.49;102228.00;4953648;28;99167;-82
2022/03/09 00:30:04;;;;;;;2.10;1.83;;;;;;;2.62;49.36;102234.63;4950286;28;96872;-82
2022/03/09 00:32:30;;;;;;;3.43;1.80;;;;;;;2.54;49.08;102236.59;4951142;28;97039;-81
2022/03/09 00:34:56;;;;;;;3.60;2.60;;;;;;;2.46;49.15;102234.31;4957765;28;96891;-82
2022/03/09 00:37:21;;;;;;;5.13;2.40;;;;;;;2.44;49.32;102251.03;4950732;28;96912;-82
2022/03/09 00:39:47;;;;;;;5.63;2.13;;;;;;;2.47;49.57;102242.06;4957589;28;97402;-82
2022/03/09 00:42:12;;;;;;;1.80;1.70;;;;;;;2.42;49.36;102255.28;4956674;28;97141;-83
2022/03/09 00:44:37;;;;;;;2.03;1.83;;;;;;;2.40;49.28;102235.91;4953434;28;97146;-82
2022/03/09 00:47:03;;;;;;;2.83;1.67;;;;;;;2.33;49.48;102230.50;4957632;28;97996;-82
2022/03/09 00:49:28;;;;;;;2.77;1.40;;;;;;;2.26;49.74;102239.47;4949597;28;98494;-82
2022/03/09 00:51:54;;;;;;;1.70;1.50;;;;;;;2.20;49.93;102249.22;4952430;28;97006;-82
2022/03/09 00:54:19;;;;;;;1.93;1.83;;;;;;;2.18;49.63;102241.44;4955530;28;97065;-82
2022/03/09 00:56:45;;;;;;;1.27;1.17;;;;;;;2.08;49.95;102255.84;4948676;28;97567;-82
2022/03/09 00:59:10;;;;;;;1.43;1.33;;;;;;;2.03;50.23;102228.34;4959448;28;97298;-82
2022/03/09 01:01:35;;;;;;;1.43;1.33;;;;;;;2.03;50.08;102233.78;4951735;28;96919;-82
2022/03/09 01:04:01;;;;;;;1.83;1.47;;;;;;;2.09;50.25;102249.25;4952067;28;97518;-82
2022/03/09 01:06:26;;;;;;;1.47;1.40;;;;;;;2.12;50.11;102231.38;4955678;28;97954;-82
2022/03/09 01:08:51;;;;;;;2.60;1.80;;;;;;;2.10;50.47;102233.72;4953078;28;98460;-82
2022/03/09 01:11:18;;;;;;;1.67;1.57;;;;;;;2.08;50.09;102253.13;4965124;28;97215;-82
2022/03/09 01:13:43;;;;;;;1.60;1.47;;;;;;;2.07;50.18;102237.25;4950564;28;96948;-82
2022/03/09 01:16:09;;;;;;;2.33;1.87;;;;;;;2.00;49.94;102240.78;4950419;28;99789;-84
2022/03/09 01:18:34;;;;;;;1.97;1.80;;;;;;;2.00;50.16;102242.69;4957732;28;97671;-82
2022/03/09 01:20:59;;;;;;;2.23;2.13;;;;;;;2.01;50.19;102236.88;4944808;28;96871;-82
2022/03/09 01:23:25;;;;;;;2.07;1.87;;;;;;;2.00;50.14;102232.63;4966089;28;97436;-82
2022/03/09 01:25:51;;;;;;;3.17;1.87;;;;;;;1.97;49.97;102246.19;4952859;28;96768;-82
2022/03/09 01:28:17;;;;;;;1.77;1.63;;;;;;;1.99;50.17;102238.44;4951904;28;97552;-82
2022/03/09 01:30:42;;;;;;;2.67;1.67;;;;;;;1.99;50.34;102238.44;4956747;28;97139;-82
2022/03/09 01:33:09;;;;;;;2.13;1.57;;;;;;;1.94;50.32;102247.00;4963083;28;97831;-82
2022/03/09 01:35:34;;;;;;;2.20;1.57;;;;;;;1.83;50.38;102247.03;4956292;28;98087;-82
2022/03/09 01:37:59;;;;;;;1.63;1.53;;;;;;;1.83;50.53;102244.31;4952843;28;98350;-83
2022/03/09 01:40:25;;;;;;;2.37;1.73;;;;;;;1.82;50.49;102240.06;4954118;28;98485;-81
2022/03/09 01:42:50;;;;;;;9.00;1.90;;;;;;;1.83;50.80;102230.75;4960029;28;97205;-81
2022/03/09 01:45:16;;;;;;;1.60;1.50;;;;;;;1.83;50.60;102248.97;4945544;28;98316;-82
2022/03/09 01:47:42;;;;;;;3.43;1.70;;;;;;;1.82;50.81;102228.41;4948255;28;98156;-82
2022/03/09 01:50:09;;;;;;;4.63;1.40;;;;;;;1.83;50.86;102236.19;4951697;28;97333;-82
2022/03/09 01:52:36;;;;;;;3.53;1.40;;;;;;;1.84;50.59;102228.81;4947300;28;97056;-81
2022/03/09 01:55:02;;;;;;;1.90;1.50;;;;;;;1.87;50.41;102230.75;4948601;28;96832;-81
2022/03/09 01:57:29;;;;;;;1.50;1.40;;;;;;;1.84;50.50;102232.28;4946190;28;97326;-82
2022/03/09 01:59:55;;;;;;;1.80;1.70;;;;;;;1.81;50.41;102270.31;4952548;28;97007;-82
2022/03/09 02:02:20;;;;;;;4.67;3.07;;;;;;;1.75;50.43;102231.94;4950788;28;97299;-82
2022/03/09 02:04:46;;;;;;;4.50;3.20;;;;;;;1.75;50.47;102234.66;4950194;28;98843;-81
2022/03/09 02:07:12;;;;;;;5.00;3.07;;;;;;;1.76;50.52;102249.00;4953721;28;97664;-81
2022/03/09 02:09:41;;;;;;;6.93;2.60;;;;;;;1.79;50.54;102229.97;4948829;28;97019;-82
2022/03/09 02:12:18;;;;;;;3.27;2.50;;;;;;;1.74;51.16;102224.97;4950459;28;97447;-82
2022/03/09 02:14:49;;;;;;;3.27;1.90;;;;;;;1.72;51.11;102212.97;4971738;28;98351;-81
2022/03/09 02:17:20;;;;;;;4.03;2.23;;;;;;;1.67;50.76;102219.56;4947800;28;97728;-83
2022/03/09 02:19:49;;;;;;;2.57;1.60;;;;;;;1.64;50.94;102217.63;4975025;28;96771;-82
2022/03/09 02:22:20;;;;;;;2.40;1.70;;;;;;;1.64;51.03;102220.34;4948862;28;97022;-81
2022/03/09 02:24:47;;;;;;;1.97;1.50;;;;;;;1.66;50.92;102238.97;4957872;28;97014;-81
2022/03/09 02:27:13;;;;;;;2.37;1.83;;;;;;;1.61;50.84;102212.22;4950902;28;97767;-82
2022/03/09 02:29:38;;;;;;;2.47;1.60;;;;;;;1.69;51.08;102214.53;4961520;28;97004;-82
2022/03/09 02:32:05;;;;;;;1.60;1.50;;;;;;;1.67;51.00;102246.69;4956357;28;97315;-82
2022/03/09 02:34:30;;;;;;;2.00;1.70;;;;;;;1.66;50.80;102215.28;4949292;28;97565;-82
2022/03/09 02:36:56;;;;;;;1.73;1.47;;;;;;;1.67;50.82;102235.06;4951414;28;98525;-82
2022/03/09 02:39:22;;;;;;;1.20;1.20;;;;;;;1.68;50.92;102212.22;4955994;28;97197;-82
2022/03/09 02:41:47;;;;;;;1.53;1.40;;;;;;;1.68;51.03;102223.06;4950830;28;97013;-82
2022/03/09 02:44:12;;;;;;;2.17;1.90;;;;;;;1.68;51.14;102217.63;4956168;28;99338;-81
2022/03/09 02:46:38;;;;;;;1.50;1.37;;;;;;;1.68;51.00;102236.63;4954088;28;97309;-82
2022/03/09 02:49:03;;;;;;;2.03;1.80;;;;;;;1.72;51.05;102221.88;4954149;28;96876;-81
2022/03/09 02:51:29;;;;;;;1.50;1.40;;;;;;;1.70;51.08;102226.16;4954022;28;96724;-83
2022/03/09 02:53:55;;;;;;;2.20;1.60;;;;;;;1.64;51.00;102216.88;4939541;28;97773;-82
2022/03/09 02:56:20;;;;;;;1.20;1.10;;;;;;;1.65;50.82;102213.75;4956643;28;99694;-82
2022/03/09 02:58:46;;;;;;;2.00;1.90;;;;;;;1.66;50.80;102234.28;4947025;28;96992;-81
2022/03/09 03:01:13;;;;;;;2.30;2.10;;;;;;;1.66;50.76;102233.53;4954061;28;96880;-83
2022/03/09 03:03:42;;;;;;;2.73;2.00;;;;;;;1.67;50.95;102232.34;4951850;28;98499;-82
2022/03/09 03:06:08;;;;;;;2.40;1.90;;;;;;;1.66;50.84;102228.09;4958370;28;102195;-83
2022/03/09 03:08:35;;;;;;;2.73;1.90;;;;;;;1.62;51.07;102227.34;4957332;28;97161;-81
2022/03/09 03:11:00;;;;;;;2.10;1.43;;;;;;;1.60;51.03;102248.63;4947102;28;97323;-83
2022/03/09 03:13:26;;;;;;;2.20;1.67;;;;;;;1.60;51.16;102238.56;4952684;28;99582;-82
2022/03/09 03:15:52;;;;;;;1.77;1.67;;;;;;;1.56;51.04;102221.53;4956513;28;97423;-82
2022/03/09 03:18:17;;;;;;;1.70;1.43;;;;;;;1.54;51.11;102229.28;4946099;28;98275;-82
2022/03/09 03:20:42;;;;;;;2.40;1.73;;;;;;;1.53;51.11;102219.59;4963395;28;97710;-82
2022/03/09 03:23:08;;;;;;;3.10;2.10;;;;;;;1.51;51.24;102219.22;4949477;28;98677;-82
2022/03/09 03:25:33;;;;;;;1.67;1.57;;;;;;;1.50;51.19;102217.69;4954017;28;97407;-83
2022/03/09 03:27:59;;;;;;;3.17;1.83;;;;;;;1.49;50.87;102210.69;4950048;28;97272;-82
2022/03/09 03:30:24;;;;;;;1.80;1.70;;;;;;;1.46;51.29;102212.25;4946931;28;97052;-82
2022/03/09 03:32:49;;;;;;;1.57;1.47;;;;;;;1.47;51.25;102227.38;4955730;28;97662;-83
2022/03/09 03:35:15;;;;;;;2.07;1.87;;;;;;;1.46;51.43;102212.25;4963277;28;99351;-83
2022/03/09 03:37:40;;;;;;;2.90;2.00;;;;;;;1.45;51.31;102216.16;4944409;28;97033;-82
2022/03/09 03:40:06;;;;;;;2.20;1.70;;;;;;;1.43;51.38;102215.75;4948243;28;97201;-82
2022/03/09 03:42:32;;;;;;;1.83;1.63;;;;;;;1.41;51.40;102209.97;4942803;28;97652;-82
2022/03/09 03:44:57;;;;;;;2.37;1.50;;;;;;;1.37;51.20;102209.19;4953467;28;96912;-82
2022/03/09 03:47:22;;;;;;;1.80;1.70;;;;;;;1.32;51.64;102220.44;4945771;28;97131;-83
2022/03/09 03:49:48;;;;;;;1.47;1.37;;;;;;;1.27;51.56;102222.75;4958821;28;96914;-83
2022/03/09 03:52:14;;;;;;;1.23;1.13;;;;;;;1.25;51.78;102209.59;4949841;28;97445;-82
2022/03/09 03:54:39;;;;;;;2.10;1.50;;;;;;;1.25;51.81;102216.94;4947855;28;98569;-83
2022/03/09 03:57:05;;;;;;;2.73;1.67;;;;;;;1.27;51.60;102226.25;4957997;28;97031;-83
2022/03/09 03:59:30;;;;;;;2.20;1.70;;;;;;;1.31;51.56;102221.59;4952741;28;96855;-82
2022/03/09 04:01:55;;;;;;;1.77;1.67;;;;;;;1.29;51.81;102225.88;4956381;28;98608;-81
2022/03/09 04:04:21;;;;;;;2.87;1.63;;;;;;;1.33;51.76;102226.63;4948016;28;97800;-81
2022/03/09 04:06:46;;;;;;;3.20;1.93;;;;;;;1.30;51.50;102236.31;4946859;28;96874;-82
2022/03/09 04:09:12;;;;;;;2.50;1.77;;;;;;;1.23;51.66;102230.91;4945872;28;97032;-82
2022/03/09 04:11:37;;;;;;;2.93;1.33;;;;;;;1.20;51.94;102228.97;4950810;28;97629;-82
2022/03/09 04:14:03;;;;;;;1.80;1.70;;;;;;;1.20;51.75;102233.63;4960893;28;97463;-81
2022/03/09 04:16:29;;;;;;;2.33;1.37;;;;;;;1.13;51.58;102226.28;4948138;28;97316;-82
2022/03/09 04:18:55;;;;;;;1.80;1.47;;;;;;;1.07;51.90;102235.94;4958982;28;97067;-83
2022/03/09 04:21:21;;;;;;;5.40;1.50;;;;;;;1.06;52.03;102234.41;4953541;28;97082;-83
2022/03/09 04:23:46;;;;;;;1.90;1.53;;;;;;;1.05;51.94;102240.97;4952658;28;97837;-83
2022/03/09 04:26:11;;;;;;;3.33;1.90;;;;;;;1.04;52.18;102239.44;4950651;28;97332;-82
2022/03/09 04:28:37;;;;;;;2.30;1.53;;;;;;;1.01;51.88;102229.38;4957017;28;96867;-82
2022/03/09 04:31:03;;;;;;;1.40;1.30;;;;;;;0.98;52.25;102235.59;4951259;28;97763;-83
2022/03/09 04:33:28;;;;;;;2.40;1.30;;;;;;;1.00;52.12;102230.53;4949723;28;96926;-82
2022/03/09 04:35:54;;;;;;;2.03;1.77;;;;;;;1.03;52.22;102232.47;4951277;28;97166;-82
2022/03/09 04:38:19;;;;;;;1.53;1.43;;;;;;;1.03;52.05;102226.25;4946347;28;97389;-82
2022/03/09 04:40:44;;;;;;;1.43;1.33;;;;;;;1.03;52.25;102223.56;4950265;28;97997;-82
2022/03/09 04:43:10;;;;;;;1.53;1.43;;;;;;;1.01;52.16;102237.50;4948310;28;97249;-83
2022/03/09 04:45:35;;;;;;;3.67;2.00;;;;;;;1.02;52.15;102233.63;4957807;28;96882;-82
2022/03/09 04:48:01;;;;;;;1.63;1.30;;;;;;;1.04;52.12;102255.69;4952480;28;96945;-82
2022/03/09 04:50:26;;;;;;;1.73;1.63;;;;;;;1.06;52.08;102256.09;4948637;28;98560;-83
2022/03/09 04:52:52;;;;;;;1.80;1.70;;;;;;;1.00;52.00;102233.25;4955184;28;96898;-82
2022/03/09 04:55:17;;;;;;;1.83;1.73;;;;;;;0.99;52.39;102253.38;4946648;28;96901;-83
2022/03/09 04:57:43;;;;;;;3.00;1.43;;;;;;;0.96;52.33;102256.84;4950034;28;97134;-83
2022/03/09 05:00:09;;;;;;;3.87;1.87;;;;;;;0.93;52.29;102262.28;4950469;28;97388;-82
2022/03/09 05:02:38;;;;;;;1.50;1.50;;;;;;;0.93;52.40;102244.09;4949772;28;96804;-80
2022/03/09 05:05:04;;;;;;;1.50;1.40;;;;;;;0.96;52.44;102247.97;4940840;28;96943;-83
2022/03/09 05:07:30;;;;;;;1.30;1.20;;;;;;;0.95;52.55;102236.34;4944764;28;96910;-81
2022/03/09 05:09:55;;;;;;;1.33;1.23;;;;;;;1.03;52.49;102243.31;4953487;28;100592;-82
2022/03/09 05:12:21;;;;;;;1.67;1.57;;;;;;;1.00;52.61;102243.31;4952584;28;97632;-82
2022/03/09 05:14:46;;;;;;;2.07;1.50;;;;;;;0.96;52.27;102234.41;4936676;28;98534;-81
2022/03/09 05:17:11;;;;;;;1.90;1.70;;;;;;;1.06;52.30;102241.75;4944185;28;97827;-81
2022/03/09 05:19:37;;;;;;;1.80;1.70;;;;;;;1.07;52.37;102244.06;4948617;28;97335;-82
2022/03/09 05:22:03;;;;;;;1.93;1.43;;;;;;;1.07;52.39;102252.19;4954914;28;97927;-81
2022/03/09 05:24:29;;;;;;;2.50;1.80;;;;;;;1.04;52.28;102227.81;4957326;28;97320;-82
2022/03/09 05:26:54;;;;;;;1.70;1.60;;;;;;;0.97;52.28;102231.31;4953700;28;96898;-81
2022/03/09 05:29:20;;;;;;;2.17;1.90;;;;;;;0.99;52.34;102236.34;4957749;28;97951;-81
2022/03/09 05:31:46;;;;;;;1.80;1.70;;;;;;;0.98;52.48;102235.59;4951847;28;96913;-82
2022/03/09 05:34:13;;;;;;;2.23;1.93;;;;;;;0.98;52.58;102232.09;4948576;28;96883;-81
2022/03/09 05:36:39;;;;;;;2.27;2.00;;;;;;;0.97;52.74;102239.44;4951099;28;97017;-82
2022/03/09 05:39:04;;;;;;;2.47;2.07;;;;;;;0.96;52.53;102251.41;4954107;28;98170;-82
2022/03/09 05:41:30;;;;;;;2.20;1.63;;;;;;;0.95;52.55;102241.75;4958105;28;97011;-82
2022/03/09 05:43:57;;;;;;;1.70;1.60;;;;;;;1.03;52.71;102231.69;4949386;28;97076;-83
2022/03/09 05:46:22;;;;;;;3.80;1.67;;;;;;;0.98;52.41;102227.44;4944150;28;99198;-82
2022/03/09 05:48:49;;;;;;;1.67;1.33;;;;;;;0.94;52.58;102226.66;4953808;28;101655;-82
2022/03/09 05:51:14;;;;;;;3.63;1.40;;;;;;;0.91;52.66;102232.09;4943800;28;98783;-82
2022/03/09 05:53:40;;;;;;;2.03;1.83;;;;;;;0.91;52.88;102240.22;4953759;28;97212;-82
2022/03/09 05:56:06;;;;;;;2.20;1.80;;;;;;;0.86;52.99;102251.41;4947800;28;97510;-82
2022/03/09 05:58:32;;;;;;;2.17;1.90;;;;;;;0.81;52.98;102270.78;4946453;28;99480;-81
2022/03/09 06:00:57;;;;;;;5.43;2.17;;;;;;;0.81;52.85;102252.59;4952704;28;96649;-82
2022/03/09 06:03:22;;;;;;;3.00;1.90;;;;;;;0.78;52.89;102272.34;4950402;28;96895;-83
2022/03/09 06:05:48;;;;;;;2.40;2.20;;;;;;;0.75;53.27;102254.13;4950923;28;96933;-81
2022/03/09 06:08:14;;;;;;;3.40;1.97;;;;;;;0.70;53.08;102257.22;4950203;28;99664;-83
2022/03/09 06:10:39;;;;;;;2.20;1.90;;;;;;;0.69;53.28;102261.09;4958522;28;97904;-81
2022/03/09 06:13:05;;;;;;;2.03;1.73;;;;;;;0.70;53.07;102276.16;4954045;28;96964;-82
2022/03/09 06:15:30;;;;;;;2.10;1.90;;;;;;;0.76;53.29;102307.16;4953131;28;97004;-82
2022/03/09 06:17:56;;;;;;;2.37;1.83;;;;;;;0.75;53.19;102260.31;4951215;28;99084;-83
2022/03/09 06:20:23;;;;;;;2.30;1.40;;;;;;;0.80;53.29;102245.63;4948369;28;96907;-82
2022/03/09 06:22:48;;;;;;;2.57;2.00;;;;;;;0.84;53.40;102248.31;4949860;28;96779;-82
2022/03/09 06:25:14;;;;;;;2.80;1.60;;;;;;;0.77;53.10;102232.84;4952279;28;96980;-82
2022/03/09 06:27:44;;;;;;;2.60;1.70;;;;;;;0.85;53.35;102245.25;4945930;28;96932;-81
2022/03/09 06:30:10;;;;;;;2.33;1.63;;;;;;;0.85;53.36;102241.75;4951570;28;97297;-81
2022/03/09 06:32:36;;;;;;;1.90;1.70;;;;;;;0.88;53.36;102244.47;4953339;28;96775;-83
2022/03/09 06:35:03;;;;;;;4.53;1.87;;;;;;;0.91;53.37;102246.41;4956006;28;96810;-82
2022/03/09 06:37:29;;;;;;;1.93;1.77;;;;;;;0.92;53.28;102258.78;4949899;28;98221;-81
2022/03/09 06:39:56;;;;;;;1.20;1.20;;;;;;;0.97;53.29;102254.91;4950024;28;97027;-82
2022/03/09 06:42:23;;;;;;;1.70;1.60;;;;;;;1.05;53.22;102261.91;4952079;28;97241;-82
2022/03/09 06:44:49;;;;;;;3.90;2.37;;;;;;;1.05;53.27;102254.53;4952740;28;97558;-82
2022/03/09 06:47:14;;;;;;;5.17;2.03;;;;;;;1.03;53.20;102266.91;4952017;28;98462;-82
2022/03/09 06:49:40;;;;;;;1.77;1.67;;;;;;;1.05;53.15;102299.84;4973365;28;98482;-82
2022/03/09 06:52:06;;;;;;;3.20;2.10;;;;;;;1.04;53.38;102258.41;4947934;28;97358;-81
2022/03/09 06:54:31;;;;;;;3.50;2.00;;;;;;;1.09;53.38;102260.72;4947797;28;96814;-81
2022/03/09 06:56:57;;;;;;;2.20;1.77;;;;;;;1.14;53.49;102275.81;4964251;28;99928;-81
2022/03/09 06:59:22;;;;;;;1.87;1.60;;;;;;;1.17;53.25;102258.78;4955492;28;97357;-81
2022/03/09 07:01:47;;;;;;;3.03;1.90;;;;;;;1.25;53.20;102263.03;4949886;28;96895;-81
2022/03/09 07:04:13;;;;;;;2.67;2.10;;;;;;;1.28;53.65;102270.41;4946251;28;98038;-83
2022/03/09 07:06:38;;;;;;;2.03;1.93;;;;;;;1.31;53.62;102270.38;4952660;28;97173;-81
2022/03/09 07:09:05;;;;;;;3.10;1.70;;;;;;;1.39;53.29;102271.94;4950076;28;98412;-82
2022/03/09 07:11:31;;;;;;;1.63;1.50;;;;;;;1.47;53.66;102275.41;4950737;28;96780;-82
2022/03/09 07:13:57;;;;;;;1.57;1.47;;;;;;;1.57;53.72;102284.69;4955839;28;97129;-82
2022/03/09 07:16:22;;;;;;;3.10;2.57;;;;;;;1.58;53.32;102267.25;4947157;28;97089;-81
2022/03/09 07:18:48;;;;;;;2.97;2.10;;;;;;;1.78;53.49;102276.50;4947728;28;96951;-82
2022/03/09 07:21:13;;;;;;;1.70;1.60;;;;;;;1.87;53.44;102285.78;4944791;28;96833;-82
2022/03/09 07:23:39;;;;;;;3.33;1.93;;;;;;;1.94;53.38;102283.06;4952643;28;97898;-82
2022/03/09 07:26:04;;;;;;;2.40;2.00;;;;;;;2.00;53.01;102277.97;4951514;28;97285;-81
2022/03/09 07:28:30;;;;;;;1.73;1.63;;;;;;;2.04;53.23;102284.16;4947317;28;97325;-82
2022/03/09 07:30:55;;;;;;;1.80;1.70;;;;;;;2.14;53.35;102311.28;4956293;28;96682;-83
2022/03/09 07:33:21;;;;;;;3.33;1.70;;;;;;;2.24;53.24;102282.53;4962799;28;96859;-81
2022/03/09 07:35:46;;;;;;;1.90;1.80;;;;;;;2.32;53.29;102283.25;4950907;28;97646;-82
2022/03/09 07:38:14;;;;;;;1.87;1.73;;;;;;;2.37;53.27;102275.50;4958243;28;98313;-81
2022/03/09 07:40:40;;;;;;;3.33;1.90;;;;;;;2.49;53.26;102296.00;4943664;28;98370;-81
2022/03/09 07:43:05;;;;;;;2.20;2.00;;;;;;;2.54;52.88;102299.06;4951946;28;97061;-82
2022/03/09 07:45:31;;;;;;;2.73;1.87;;;;;;;2.57;52.95;102294.78;4947594;28;98824;-81
2022/03/09 07:47:57;;;;;;;1.77;1.67;;;;;;;2.63;53.05;102288.53;4949789;28;98457;-80
2022/03/09 07:50:22;;;;;;;2.03;1.83;;;;;;;2.69;53.15;102291.59;4943332;28;98439;-81
2022/03/09 07:52:48;;;;;;;2.53;2.03;;;;;;;2.74;53.06;102288.47;4948641;28;97346;-82
2022/03/09 07:55:14;;;;;;;2.50;1.63;;;;;;;2.79;53.09;102286.13;4953086;28;98661;-82
2022/03/09 07:57:40;;;;;;;3.70;2.57;;;;;;;2.83;53.31;102280.66;4948760;28;97533;-81
2022/03/09 08:00:06;;;;;;;2.20;2.00;;;;;;;2.89;53.06;102287.97;4955102;28;96987;-81
2022/03/09 08:02:32;;;;;;;3.20;1.83;;;;;;;2.93;52.98;102286.00;4956981;28;96974;-81
2022/03/09 08:04:57;;;;;;;2.80;2.13;;;;;;;2.99;53.25;102284.41;4950741;28;99414;-83
2022/03/09 08:07:23;;;;;;;1.70;1.60;;;;;;;3.05;52.99;102287.47;4962455;28;97350;-81
2022/03/09 08:09:48;;;;;;;2.33;1.77;;;;;;;3.10;53.08;102284.34;4955586;28;97073;-80
2022/03/09 08:12:14;;;;;;;2.00;1.80;;;;;;;3.18;53.42;102293.97;4952360;28;96682;-81
2022/03/09 08:14:39;;;;;;;1.97;1.63;;;;;;;3.25;53.19;102293.94;4954467;28;97582;-81
2022/03/09 08:17:05;;;;;;;2.47;1.90;;;;;;;3.37;53.25;102303.50;4953506;28;98107;-81
2022/03/09 08:19:30;;;;;;;4.43;1.80;;;;;;;3.47;53.27;102297.22;4952898;28;96873;-81
2022/03/09 08:21:56;;;;;;;2.80;2.20;;;;;;;3.59;53.28;102292.03;4954333;28;96878;-81
2022/03/09 08:24:21;;;;;;;4.13;2.20;;;;;;;3.73;53.46;102302.03;4952987;28;96798;-80
2022/03/09 08:26:47;;;;;;;2.90;2.27;;;;;;;3.88;53.25;102299.91;4952231;28;96512;-82
2022/03/09 08:29:13;;;;;;;1.70;1.60;;;;;;;4.00;53.00;102302.88;4949510;28;97388;-81
2022/03/09 08:31:38;;;;;;;2.83;2.07;;;;;;;4.18;52.96;102316.28;4944541;28;96696;-81
2022/03/09 08:34:04;;;;;;;2.27;2.07;;;;;;;4.34;53.13;102314.53;4950106;28;97548;-80
2022/03/09 08:36:30;;;;;;;1.90;1.70;;;;;;;4.48;53.11;102300.72;4952762;28;97178;-81
2022/03/09 08:38:55;;;;;;;2.57;1.90;;;;;;;4.57;52.87;102341.09;4950344;28;97095;-80
2022/03/09 08:41:25;;;;;;;2.90;2.30;;;;;;;4.72;52.77;102314.44;4948650;28;96878;-79
2022/03/09 08:43:50;;;;;;;2.47;2.27;;;;;;;4.86;52.79;102325.13;4971949;28;96806;-80
2022/03/09 08:46:16;;;;;;;2.07;1.97;;;;;;;5.01;52.92;102315.53;4951252;28;96980;-81
2022/03/09 08:48:41;;;;;;;2.00;1.63;;;;;;;5.14;52.98;102314.56;4952289;28;97310;-80
2022/03/09 08:51:07;;;;;;;2.80;1.90;;;;;;;5.29;52.74;102315.88;4955847;28;97423;-83
2022/03/09 08:53:33;;;;;;;2.90;2.07;;;;;;;5.40;52.70;102310.22;4951697;28;96944;-81
2022/03/09 08:55:59;;;;;;;2.30;2.10;;;;;;;5.57;52.56;102313.84;4953469;28;98126;-82
2022/03/09 08:58:24;;;;;;;2.53;2.10;;;;;;;5.71;52.42;102306.16;4967738;28;96936;-81
2022/03/09 09:00:50;;;;;;;2.20;2.00;;;;;;;5.88;52.55;102312.50;4956185;28;97344;-81
2022/03/09 09:03:15;;;;;;;2.27;2.07;;;;;;;6.09;52.35;102344.13;4959848;28;98011;-81
2022/03/09 09:05:41;;;;;;;2.60;2.07;;;;;;;6.31;51.86;102320.66;4953472;28;96940;-81
2022/03/09 09:08:06;;;;;;;2.20;2.10;;;;;;;6.56;51.95;102332.59;4946924;28;97068;-82
2022/03/09 09:10:33;;;;;;;2.97;2.23;;;;;;;6.79;52.02;102361.81;4951212;28;96864;-82
2022/03/09 09:12:59;;;;;;;3.17;2.87;;;;;;;7.05;51.51;102338.16;4964779;28;99712;-82
2022/03/09 09:15:25;;;;;;;2.87;2.37;;;;;;;7.28;51.56;102307.88;4967338;28;97105;-82
2022/03/09 09:18:01;;;;;;;3.17;2.63;;;;;;;7.50;51.06;102339.78;4957502;28;97321;-83
2022/03/09 09:20:27;;;;;;;2.50;2.30;;;;;;;7.81;50.79;102326.47;4949339;28;96774;-82
2022/03/09 09:22:54;;;;;;;2.63;2.43;;;;;;;8.06;50.87;102318.31;4957301;28;97130;-84
2022/03/09 09:25:21;;;;;;;3.03;2.60;;;;;;;8.30;50.31;102314.13;4954568;28;98407;-83
2022/03/09 09:27:47;;;;;;;4.47;2.90;;;;;;;8.55;50.26;102313.41;4950332;28;96773;-83
2022/03/09 09:30:12;;;;;;;3.83;2.50;;;;;;;8.80;50.03;102327.13;4952882;28;97364;-83
2022/03/09 09:32:38;;;;;;;2.80;2.40;;;;;;;9.00;49.81;102322.19;4949773;28;98823;-82
2022/03/09 09:35:04;;;;;;;2.77;2.57;;;;;;;9.19;49.80;102308.66;4951378;28;99382;-83
2022/03/09 09:37:29;;;;;;;6.90;3.10;;;;;;;9.36;49.59;102312.81;4950759;28;96783;-82
2022/03/09 09:39:54;;;;;;;4.43;2.50;;;;;;;9.51;49.46;102322.09;4950983;28;96777;-82
2022/03/09 09:42:28;;;;;;;3.20;2.90;;;;;;;9.65;49.12;102319.63;4954707;28;96652;-82
2022/03/09 09:44:56;;;;;;;4.33;2.97;;;;;;;9.75;48.50;102309.50;4955431;28;100234;-82
2022/03/09 09:47:23;;;;;;;6.93;2.60;;;;;;;9.98;48.48;102336.53;4952104;28;98124;-82
2022/03/09 09:49:49;;;;;;;2.53;2.33;;;;;;;10.02;48.26;102306.97;4956845;28;97143;-80
2022/03/09 09:52:15;;;;;;;2.70;2.50;;;;;;;10.25;48.25;102341.50;4974570;28;97737;-79
2022/03/09 09:54:41;;;;;;;3.27;2.60;;;;;;;10.36;48.13;102326.16;4955209;28;99197;-82
2022/03/09 09:57:11;;;;;;;2.57;2.27;;;;;;;10.50;48.19;102330.38;4957745;28;97101;-83
2022/03/09 09:59:37;;;;;;;2.73;2.53;;;;;;;10.64;47.52;102326.31;4982464;28;97079;-83
2022/03/09 10:02:06;;;;;;;7.93;2.97;;;;;;;10.76;47.47;102325.44;4963288;28;97123;-81
2022/03/09 10:04:31;;;;;;;2.53;2.33;;;;;;;10.80;47.36;102318.56;4958930;28;97319;-82
2022/03/09 10:06:56;;;;;;;2.50;2.17;;;;;;;10.96;47.32;102320.31;4956055;28;96879;-83
2022/03/09 10:09:22;;;;;;;2.60;2.40;;;;;;;11.01;47.19;102303.19;4952474;28;97129;-81
2022/03/09 10:11:52;;;;;;;2.40;2.20;;;;;;;11.15;45.85;102333.69;4956050;28;96890;-82
2022/03/09 10:14:44;;;;;;;5.47;2.67;;;;;;;11.25;43.69;102326.19;4965434;28;98602;-82
2022/03/09 10:17:16;;;;;;;2.90;2.43;;;;;;;11.36;44.72;102318.25;4947033;28;97370;-82
2022/03/09 10:19:46;;;;;;;3.10;2.80;;;;;;;11.43;44.72;102311.69;4952114;28;97055;-82
2022/03/09 10:22:33;;;;;;;2.90;2.10;;;;;;;11.45;42.71;102301.72;4953159;28;97437;-83
2022/03/09 10:25:10;;;;;;;2.27;2.07;;;;;;;11.58;43.05;102315.38;4960497;28;102319;-81
2022/03/09 10:27:50;;;;;;;2.40;2.07;;;;;;;11.64;42.95;102308.78;4954517;28;96792;-81
2022/03/09 10:30:40;;;;;;;2.83;2.63;;;;;;;11.71;44.83;102327.03;4959226;28;97880;-84
2022/03/09 10:33:10;;;;;;;3.60;2.90;;;;;;;11.78;44.67;102305.47;4945511;28;103563;-83
2022/03/09 10:35:36;;;;;;;2.50;2.20;;;;;;;11.82;44.32;102311.56;4951809;28;100528;-84
2022/03/09 10:38:04;;;;;;;2.60;2.40;;;;;;;11.84;43.96;102316.63;4950105;28;97209;-83
2022/03/09 10:40:31;;;;;;;2.50;2.17;;;;;;;11.92;44.00;102318.63;4945730;28;97047;-84
2022/03/09 10:43:21;;;;;;;3.60;2.33;;;;;;;12.01;41.39;102321.38;4947553;28;97132;-84
2022/03/09 10:46:08;;;;;;;2.43;2.23;;;;;;;12.09;41.50;102316.31;4955274;28;103551;-84
2022/03/09 10:49:00;;;;;;;2.37;2.27;;;;;;;12.18;40.40;102307.25;4952049;28;96977;-84
2022/03/09 10:51:33;;;;;;;2.33;2.20;;;;;;;12.25;42.06;102296.66;4962839;28;97487;-84
2022/03/09 10:54:02;;;;;;;4.67;2.87;;;;;;;12.32;42.98;102301.09;4960829;28;98434;-84
2022/03/09 10:56:28;;;;;;;2.70;2.17;;;;;;;12.39;43.18;102298.00;4948837;28;98913;-84
2022/03/09 10:58:53;;;;;;;5.60;2.83;;;;;;;12.45;42.75;102298.91;4951389;28;96679;-85
2022/03/09 11:01:20;;;;;;;3.07;2.20;;;;;;;12.55;42.64;102295.66;4951604;28;97627;-85
2022/03/09 11:03:46;;;;;;;2.40;2.27;;;;;;;12.63;42.63;102302.38;4952588;28;99053;-84
2022/03/09 11:06:12;;;;;;;4.43;2.60;;;;;;;12.74;42.08;102293.56;4947392;28;99745;-83
2022/03/09 11:08:39;;;;;;;2.60;2.17;;;;;;;12.87;42.26;102294.13;4957525;28;97007;-83
2022/03/09 11:11:06;;;;;;;2.77;2.57;;;;;;;13.01;42.06;102287.16;4952319;28;98118;-83
2022/03/09 11:13:34;;;;;;;2.90;2.70;;;;;;;13.12;41.73;102293.72;4954408;28;99385;-84
2022/03/09 11:16:01;;;;;;;3.27;3.07;;;;;;;13.28;41.48;102287.03;4964419;28;96950;-83
2022/03/09 11:18:28;;;;;;;2.53;2.33;;;;;;;13.45;41.27;102288.88;4949260;28;97137;-84
2022/03/09 11:20:56;;;;;;;2.40;2.23;;;;;;;13.59;41.25;102289.38;4948237;28;97149;-84
2022/03/09 11:23:23;;;;;;;2.57;2.27;;;;;;;13.74;41.07;102281.91;4948983;28;97089;-85
2022/03/09 11:25:59;;;;;;;2.60;2.40;;;;;;;13.96;39.26;102293.34;4944715;28;98228;-84
2022/03/09 11:28:28;;;;;;;2.50;2.30;;;;;;;14.22;40.61;102281.25;4949266;28;97257;-85